Terminal Aerodrome Forecast
Issued by NWS Newport/Morehead City, NC

Home | Current Version | Previous Version | Graphics & Text | Print | Product List | Glossary On
Versions: 1 2 3 4 5 6 7 8 9 10 11 12 13 14 15 16 17 18 19 20 21 22 23 24 25 26 27 28 29 30 31 32 33
000
FTUS42 KMHX 231745 CCA
TAFEWN
TAF COR
KEWN 231745Z 2318/2418 VRB03KT P6SM VCTS BKN025CB
     FM240000 VRB04KT P6SM VCTS SCT090CB
     FM240600 VRB03KT 3SM BR SCT008
     FM240900 00000KT 1SM BR BKN008
     FM241300 VRB04KT 3SM BR SCT008
     FM241500 02005KT P6SM SCT100=

USA.gov is the U.S. government's official web portal to all federal, state and local government web resources and services.